SRD100Z EGHF-EGHF

Flight info

Callsign SRD100Z
Flight time 2h 20m
Altitude 1500
Route VFR
Aircraft A139/L-SDGRY/S

Departure

Time 2026-05-06 23:06
Airport Solent Airport (EGHF)

Arrival

Time 2026-05-07 01:27
Airport Solent Airport (EGHF)
Time Latitude Longitude Altitude Speed Heading
2026-05-06 23:03 50.81200 -1.20717 33 ft 0 kts 275°
2026-05-06 23:04 50.81200 -1.20719 37 ft 2 kts 275°
2026-05-06 23:05 50.81206 -1.20871 52 ft 22 kts 281°
2026-05-06 23:05 50.81223 -1.21125 50 ft 17 kts 328°
2026-05-06 23:05 50.81277 -1.21129 44 ft 9 kts 52°
2026-05-06 23:05 50.81287 -1.21114 45 ft 0 kts 46°
2026-05-06 23:06 50.81422 -1.20896 146 ft 73 kts 44°
2026-05-06 23:06 50.81878 -1.20134 477 ft 102 kts 45°
2026-05-06 23:06 50.82536 -1.19603 803 ft 122 kts 12°
2026-05-06 23:06 50.83403 -1.19790 1124 ft 128 kts 335°
2026-05-06 23:07 50.84025 -1.20790 1385 ft 133 kts 296°
2026-05-06 23:07 50.84001 -1.22241 1533 ft 139 kts 240°
2026-05-06 23:07 50.83418 -1.23450 1553 ft 139 kts 232°
2026-05-06 23:07 50.82798 -1.24645 1522 ft 139 kts 232°
2026-05-06 23:08 50.82198 -1.25849 1500 ft 139 kts 233°
2026-05-06 23:08 50.81584 -1.27028 1480 ft 140 kts 226°
2026-05-06 23:08 50.80887 -1.28121 1495 ft 139 kts 225°
2026-05-06 23:08 50.80206 -1.29201 1499 ft 139 kts 225°
2026-05-06 23:09 50.79521 -1.30294 1503 ft 139 kts 225°
2026-05-06 23:09 50.78854 -1.31432 1486 ft 141 kts 225°
2026-05-06 23:09 50.78221 -1.32574 1521 ft 139 kts 225°
2026-05-06 23:09 50.77609 -1.33781 1498 ft 140 kts 240°
2026-05-06 23:10 50.77164 -1.35128 1522 ft 138 kts 242°
2026-05-06 23:10 50.76711 -1.36468 1509 ft 139 kts 242°
2026-05-06 23:10 50.76242 -1.37825 1479 ft 141 kts 242°
2026-05-06 23:10 50.75761 -1.39204 1430 ft 147 kts 242°
2026-05-06 23:11 50.75258 -1.40640 1470 ft 148 kts 242°
2026-05-06 23:11 50.74748 -1.42071 1506 ft 148 kts 242°
2026-05-06 23:11 50.74238 -1.43490 1520 ft 148 kts 242°
2026-05-06 23:11 50.73724 -1.44919 1515 ft 148 kts 242°
2026-05-06 23:12 50.73207 -1.46352 1510 ft 148 kts 242°
2026-05-06 23:12 50.72694 -1.47775 1503 ft 148 kts 242°
2026-05-06 23:12 50.72190 -1.49188 1493 ft 149 kts 242°
2026-05-06 23:12 50.71682 -1.50619 1491 ft 149 kts 242°
2026-05-06 23:13 50.71169 -1.52072 1491 ft 149 kts 242°
2026-05-06 23:13 50.70663 -1.53507 1497 ft 149 kts 242°
2026-05-06 23:13 50.70164 -1.54927 1500 ft 149 kts 242°
2026-05-06 23:13 50.69658 -1.56376 1502 ft 149 kts 242°
2026-05-06 23:14 50.69107 -1.57748 1473 ft 150 kts 226°
2026-05-06 23:14 50.68366 -1.58876 1508 ft 148 kts 224°
2026-05-06 23:14 50.67623 -1.60004 1500 ft 148 kts 224°
2026-05-06 23:14 50.66883 -1.61130 1495 ft 148 kts 224°
2026-05-06 23:15 50.66129 -1.62265 1494 ft 148 kts 223°
2026-05-06 23:15 50.65196 -1.62932 1506 ft 147 kts 197°
2026-05-06 23:15 50.64227 -1.63450 1501 ft 147 kts 198°
2026-05-06 23:15 50.63260 -1.63977 1487 ft 147 kts 198°
2026-05-06 23:16 50.62287 -1.64506 1487 ft 147 kts 198°
2026-05-06 23:16 50.61318 -1.65038 1492 ft 147 kts 197°
2026-05-06 23:16 50.60301 -1.65299 1498 ft 145 kts 180°
2026-05-06 23:16 50.59384 -1.65373 1498 ft 145 kts 180°
2026-05-06 23:17 50.58381 -1.65454 1490 ft 145 kts 180°
2026-05-06 23:17 50.57366 -1.65535 1483 ft 145 kts 180°
2026-05-06 23:17 50.56359 -1.65612 1483 ft 146 kts 180°
2026-05-06 23:17 50.55346 -1.65696 1483 ft 146 kts 181°
2026-05-06 23:18 50.54329 -1.65901 1482 ft 147 kts 187°
2026-05-06 23:18 50.53320 -1.66204 1489 ft 147 kts 188°
2026-05-06 23:18 50.52635 -1.66402 1491 ft 147 kts 188°
2026-05-06 23:18 50.51627 -1.66671 1489 ft 147 kts 189°
2026-05-06 23:19 50.50823 -1.67408 1487 ft 149 kts 230°
2026-05-06 23:19 50.50332 -1.68857 1492 ft 149 kts 246°
2026-05-06 23:19 50.49989 -1.70324 1620 ft 129 kts 251°
2026-05-06 23:19 50.49908 -1.71602 1517 ft 111 kts 262°
2026-05-06 23:20 50.49608 -1.72665 1260 ft 107 kts 224°
2026-05-06 23:20 50.49010 -1.73236 1114 ft 94 kts 192°
2026-05-06 23:20 50.48393 -1.73384 909 ft 87 kts 174°
2026-05-06 23:20 50.47794 -1.73367 697 ft 86 kts 170°
2026-05-06 23:21 50.47196 -1.73310 502 ft 85 kts 184°
2026-05-06 23:21 50.46600 -1.73317 447 ft 86 kts 187°
2026-05-06 23:21 50.45995 -1.73368 460 ft 86 kts 186°
2026-05-06 23:21 50.45396 -1.73392 474 ft 85 kts 185°
2026-05-06 23:22 50.44798 -1.73398 482 ft 86 kts 184°
2026-05-06 23:22 50.44195 -1.73402 486 ft 86 kts 184°
2026-05-06 23:22 50.43592 -1.73406 489 ft 86 kts 184°
2026-05-06 23:22 50.42991 -1.73410 491 ft 85 kts 183°
2026-05-06 23:23 50.42395 -1.73412 492 ft 85 kts 183°
2026-05-06 23:23 50.41800 -1.73414 490 ft 85 kts 183°
2026-05-06 23:23 50.41207 -1.73415 491 ft 85 kts 182°
2026-05-06 23:23 50.40609 -1.73415 492 ft 84 kts 182°
2026-05-06 23:24 50.40020 -1.73416 491 ft 84 kts 182°
2026-05-06 23:24 50.39432 -1.73417 489 ft 84 kts 182°
2026-05-06 23:24 50.38846 -1.73417 487 ft 85 kts 181°
2026-05-06 23:24 50.38257 -1.73417 488 ft 85 kts 181°
2026-05-06 23:25 50.37660 -1.73417 487 ft 85 kts 181°
2026-05-06 23:25 50.37064 -1.73417 489 ft 86 kts 181°
2026-05-06 23:25 50.36469 -1.73418 492 ft 86 kts 181°
2026-05-06 23:25 50.35866 -1.73418 491 ft 86 kts 181°
2026-05-06 23:26 50.35269 -1.73418 487 ft 86 kts 181°
2026-05-06 23:26 50.34663 -1.73418 485 ft 86 kts 181°
2026-05-06 23:26 50.34066 -1.73448 482 ft 86 kts 188°
2026-05-06 23:26 50.33570 -1.73920 476 ft 85 kts 234°
2026-05-06 23:27 50.33384 -1.74779 471 ft 83 kts 267°
2026-05-06 23:27 50.33524 -1.75618 470 ft 80 kts 310°
2026-05-06 23:27 50.33970 -1.76070 473 ft 76 kts 352°
2026-05-06 23:27 50.34493 -1.76097 478 ft 75 kts
2026-05-06 23:28 50.35017 -1.76067 485 ft 75 kts
2026-05-06 23:28 50.35534 -1.76050 488 ft 74 kts
2026-05-06 23:28 50.36057 -1.76042 484 ft 74 kts
2026-05-06 23:28 50.36578 -1.76037 481 ft 74 kts
2026-05-06 23:29 50.37091 -1.76033 480 ft 74 kts
2026-05-06 23:29 50.37612 -1.76030 480 ft 74 kts
2026-05-06 23:29 50.38130 -1.76028 478 ft 74 kts
2026-05-06 23:29 50.38650 -1.76026 477 ft 74 kts
2026-05-06 23:30 50.39175 -1.76026 479 ft 75 kts
2026-05-06 23:30 50.39692 -1.76025 479 ft 75 kts
2026-05-06 23:30 50.40219 -1.76025 481 ft 75 kts
2026-05-06 23:30 50.40742 -1.76025 483 ft 75 kts
2026-05-06 23:31 50.41265 -1.76025 481 ft 75 kts
2026-05-06 23:31 50.41793 -1.76024 482 ft 75 kts
2026-05-06 23:31 50.42316 -1.76023 481 ft 75 kts
2026-05-06 23:31 50.42841 -1.76023 482 ft 75 kts
2026-05-06 23:32 50.43356 -1.76023 482 ft 75 kts
2026-05-06 23:32 50.43881 -1.76023 482 ft 74 kts
2026-05-06 23:32 50.44396 -1.76024 479 ft 74 kts
2026-05-06 23:32 50.44919 -1.76023 478 ft 75 kts
2026-05-06 23:33 50.45439 -1.76023 479 ft 75 kts
2026-05-06 23:33 50.45964 -1.76023 481 ft 75 kts
2026-05-06 23:33 50.46489 -1.76023 479 ft 76 kts
2026-05-06 23:33 50.47020 -1.76022 480 ft 76 kts
2026-05-06 23:34 50.47550 -1.76022 482 ft 76 kts
2026-05-06 23:34 50.48093 -1.76022 486 ft 76 kts
2026-05-06 23:34 50.48626 -1.76023 489 ft 76 kts
2026-05-06 23:34 50.49159 -1.76023 489 ft 76 kts
2026-05-06 23:35 50.49677 -1.76174 485 ft 78 kts 333°
2026-05-06 23:35 50.50020 -1.76849 482 ft 82 kts 289°
2026-05-06 23:35 50.50079 -1.77748 477 ft 85 kts 264°
2026-05-06 23:35 50.49776 -1.78520 484 ft 85 kts 214°
2026-05-06 23:36 50.49218 -1.78778 483 ft 84 kts 184°
2026-05-06 23:36 50.48637 -1.78779 488 ft 84 kts 172°
2026-05-06 23:36 50.48053 -1.78708 490 ft 84 kts 173°
2026-05-06 23:36 50.47469 -1.78668 490 ft 84 kts 175°
2026-05-06 23:37 50.46885 -1.78653 488 ft 83 kts 176°
2026-05-06 23:37 50.46298 -1.78647 483 ft 83 kts 176°
2026-05-06 23:37 50.45719 -1.78642 478 ft 84 kts 176°
2026-05-06 23:37 50.45134 -1.78637 479 ft 84 kts 177°
2026-05-06 23:38 50.44541 -1.78634 478 ft 84 kts 176°
2026-05-06 23:38 50.43950 -1.78631 478 ft 85 kts 177°
2026-05-06 23:38 50.43357 -1.78630 482 ft 85 kts 177°
2026-05-06 23:38 50.42767 -1.78628 483 ft 85 kts 177°
2026-05-06 23:39 50.42176 -1.78627 483 ft 85 kts 177°
2026-05-06 23:39 50.41582 -1.78627 482 ft 85 kts 177°
2026-05-06 23:39 50.40991 -1.78626 482 ft 85 kts 177°
2026-05-06 23:39 50.40397 -1.78626 480 ft 85 kts 177°
2026-05-06 23:40 50.39806 -1.78626 480 ft 85 kts 177°
2026-05-06 23:40 50.39216 -1.78626 481 ft 85 kts 177°
2026-05-06 23:40 50.38626 -1.78625 479 ft 85 kts 177°
2026-05-06 23:40 50.38033 -1.78625 478 ft 85 kts 177°
2026-05-06 23:41 50.37445 -1.78625 478 ft 85 kts 177°
2026-05-06 23:41 50.36850 -1.78625 477 ft 85 kts 177°
2026-05-06 23:41 50.36256 -1.78625 478 ft 85 kts 177°
2026-05-06 23:41 50.35665 -1.78625 476 ft 86 kts 177°
2026-05-06 23:42 50.35069 -1.78625 477 ft 86 kts 178°
2026-05-06 23:42 50.34470 -1.78625 479 ft 85 kts 178°
2026-05-06 23:42 50.33873 -1.78706 475 ft 86 kts 200°
2026-05-06 23:42 50.33443 -1.79318 472 ft 85 kts 247°
2026-05-06 23:43 50.33336 -1.80219 469 ft 83 kts 280°
2026-05-06 23:43 50.33590 -1.80966 475 ft 78 kts 324°
2026-05-06 23:43 50.34082 -1.81239 475 ft 75 kts
2026-05-06 23:43 50.34609 -1.81207 483 ft 76 kts
2026-05-06 23:44 50.35141 -1.81215 486 ft 76 kts
2026-05-06 23:44 50.35679 -1.81224 487 ft 76 kts
2026-05-06 23:44 50.36210 -1.81226 485 ft 76 kts
2026-05-06 23:44 50.36734 -1.81228 483 ft 75 kts
2026-05-06 23:45 50.37262 -1.81228 481 ft 75 kts
2026-05-06 23:45 50.37779 -1.81227 477 ft 75 kts
2026-05-06 23:45 50.38302 -1.81227 475 ft 74 kts
2026-05-06 23:45 50.38819 -1.81227 476 ft 74 kts
2026-05-06 23:46 50.39341 -1.81227 476 ft 74 kts
2026-05-06 23:46 50.39860 -1.81227 475 ft 74 kts
2026-05-06 23:46 50.40380 -1.81227 475 ft 75 kts
2026-05-06 23:46 50.40908 -1.81227 475 ft 76 kts
2026-05-06 23:47 50.41432 -1.81227 479 ft 76 kts
2026-05-06 23:47 50.41965 -1.81227 480 ft 76 kts
2026-05-06 23:47 50.42497 -1.81227 485 ft 76 kts
2026-05-06 23:47 50.43029 -1.81227 485 ft 76 kts
2026-05-06 23:48 50.43550 -1.81227 483 ft 75 kts
2026-05-06 23:48 50.44080 -1.81227 482 ft 75 kts
2026-05-06 23:48 50.44608 -1.81227 481 ft 75 kts
2026-05-06 23:48 50.45126 -1.81227 481 ft 75 kts
2026-05-06 23:49 50.45651 -1.81227 481 ft 75 kts
2026-05-06 23:49 50.46175 -1.81227 480 ft 75 kts
2026-05-06 23:49 50.46701 -1.81227 477 ft 75 kts
2026-05-06 23:49 50.47224 -1.81227 478 ft 76 kts
2026-05-06 23:50 50.47755 -1.81227 479 ft 76 kts
2026-05-06 23:50 50.48826 -1.81227 483 ft 76 kts
2026-05-06 23:50 50.49358 -1.81231 483 ft 76 kts
2026-05-06 23:51 50.49841 -1.81576 479 ft 79 kts 316°
2026-05-06 23:51 50.50063 -1.82376 478 ft 83 kts 281°
2026-05-06 23:51 50.50019 -1.83269 478 ft 85 kts 245°
2026-05-06 23:51 50.49591 -1.83878 476 ft 85 kts 197°
2026-05-06 23:52 50.49009 -1.84003 482 ft 84 kts 178°
2026-05-06 23:52 50.48425 -1.83953 486 ft 84 kts 171°
2026-05-06 23:52 50.47839 -1.83892 488 ft 84 kts 174°
2026-05-06 23:52 50.47258 -1.83862 486 ft 84 kts 175°
2026-05-06 23:53 50.46674 -1.83853 484 ft 84 kts 176°
2026-05-06 23:53 50.46088 -1.83849 482 ft 84 kts 177°
2026-05-06 23:53 50.45501 -1.83844 483 ft 83 kts 177°
2026-05-06 23:53 50.44917 -1.83840 480 ft 83 kts 177°
2026-05-06 23:54 50.44340 -1.83837 480 ft 83 kts 177°
2026-05-06 23:54 50.43763 -1.83835 475 ft 83 kts 177°
2026-05-06 23:54 50.43184 -1.83834 470 ft 83 kts 177°
2026-05-06 23:54 50.42602 -1.83833 471 ft 84 kts 177°
2026-05-06 23:55 50.42009 -1.83832 472 ft 84 kts 177°
2026-05-06 23:55 50.41419 -1.83832 473 ft 84 kts 177°
2026-05-06 23:55 50.40832 -1.83831 473 ft 85 kts 177°
2026-05-06 23:55 50.40242 -1.83831 473 ft 85 kts 177°
2026-05-06 23:56 50.39642 -1.83831 472 ft 85 kts 178°
2026-05-06 23:56 50.39045 -1.83831 474 ft 85 kts 178°
2026-05-06 23:56 50.38454 -1.83830 474 ft 85 kts 178°
2026-05-06 23:56 50.37866 -1.83830 473 ft 85 kts 178°
2026-05-06 23:57 50.37274 -1.83830 475 ft 84 kts 178°
2026-05-06 23:57 50.36688 -1.83830 471 ft 84 kts 178°
2026-05-06 23:57 50.36108 -1.83830 468 ft 84 kts 178°
2026-05-06 23:57 50.35515 -1.83830 468 ft 84 kts 177°
2026-05-06 23:58 50.34924 -1.83830 468 ft 85 kts 177°
2026-05-06 23:58 50.34336 -1.83830 470 ft 85 kts 177°
2026-05-06 23:58 50.33752 -1.84000 469 ft 86 kts 211°
2026-05-06 23:58 50.33393 -1.84718 463 ft 85 kts 257°
2026-05-06 23:59 50.33357 -1.85621 465 ft 82 kts 292°
2026-05-06 23:59 50.33687 -1.86288 470 ft 77 kts 334°
2026-05-06 23:59 50.34201 -1.86431 470 ft 75 kts
2026-05-06 23:59 50.34723 -1.86410 473 ft 76 kts
2026-05-07 00:00 50.35254 -1.86421 475 ft 76 kts
2026-05-07 00:00 50.35789 -1.86429 479 ft 76 kts
2026-05-07 00:00 50.36319 -1.86432 479 ft 76 kts
2026-05-07 00:00 50.36844 -1.86432 473 ft 76 kts
2026-05-07 00:01 50.37375 -1.86432 472 ft 76 kts
2026-05-07 00:01 50.37905 -1.86432 471 ft 75 kts
2026-05-07 00:01 50.38432 -1.86432 470 ft 75 kts
2026-05-07 00:01 50.38952 -1.86432 470 ft 75 kts
2026-05-07 00:02 50.39475 -1.86432 472 ft 74 kts
2026-05-07 00:02 50.39991 -1.86432 471 ft 74 kts
2026-05-07 00:02 50.40513 -1.86432 470 ft 75 kts
2026-05-07 00:02 50.41042 -1.86431 472 ft 75 kts
2026-05-07 00:03 50.41566 -1.86431 477 ft 76 kts
2026-05-07 00:03 50.42101 -1.86431 487 ft 76 kts
2026-05-07 00:03 50.42638 -1.86432 493 ft 76 kts
2026-05-07 00:03 50.43169 -1.86432 495 ft 76 kts
2026-05-07 00:04 50.43704 -1.86432 496 ft 76 kts
2026-05-07 00:04 50.44243 -1.86432 493 ft 76 kts
2026-05-07 00:04 50.44774 -1.86432 493 ft 76 kts
2026-05-07 00:04 50.45308 -1.86432 493 ft 76 kts
2026-05-07 00:05 50.45838 -1.86432 491 ft 76 kts
2026-05-07 00:05 50.46370 -1.86432 490 ft 76 kts
2026-05-07 00:05 50.46904 -1.86432 490 ft 76 kts
2026-05-07 00:05 50.47442 -1.86432 491 ft 76 kts
2026-05-07 00:06 50.47973 -1.86432 490 ft 77 kts
2026-05-07 00:06 50.48506 -1.86432 491 ft 77 kts
2026-05-07 00:06 50.49044 -1.86432 493 ft 77 kts
2026-05-07 00:06 50.49574 -1.86503 488 ft 78 kts 341°
2026-05-07 00:07 50.49977 -1.87078 489 ft 81 kts 298°
2026-05-07 00:07 50.50090 -1.87963 487 ft 84 kts 276°
2026-05-07 00:07 50.49878 -1.88801 488 ft 85 kts 224°
2026-05-07 00:07 50.49350 -1.89165 484 ft 84 kts 184°
2026-05-07 00:08 50.48757 -1.89194 485 ft 84 kts 172°
2026-05-07 00:08 50.48175 -1.89120 484 ft 84 kts 172°
2026-05-07 00:08 50.47595 -1.89075 480 ft 84 kts 175°
2026-05-07 00:08 50.47007 -1.89058 477 ft 84 kts 176°
2026-05-07 00:09 50.46427 -1.89053 476 ft 83 kts 177°
2026-05-07 00:09 50.45851 -1.89050 472 ft 83 kts 177°
2026-05-07 00:09 50.45265 -1.89046 467 ft 84 kts 177°
2026-05-07 00:09 50.44680 -1.89043 466 ft 85 kts 177°
2026-05-07 00:10 50.44087 -1.89041 469 ft 85 kts 176°
2026-05-07 00:10 50.43489 -1.89039 473 ft 85 kts 176°
2026-05-07 00:10 50.42898 -1.89038 477 ft 85 kts 176°
2026-05-07 00:10 50.42305 -1.89037 479 ft 85 kts 177°
2026-05-07 00:11 50.41709 -1.89036 478 ft 85 kts 177°
2026-05-07 00:11 50.41124 -1.89036 479 ft 84 kts 177°
2026-05-07 00:11 50.40533 -1.89036 481 ft 84 kts 177°
2026-05-07 00:11 50.39949 -1.89036 481 ft 84 kts 177°
2026-05-07 00:12 50.39365 -1.89035 482 ft 83 kts 177°
2026-05-07 00:12 50.38792 -1.89035 478 ft 83 kts 177°
2026-05-07 00:12 50.38212 -1.89035 477 ft 83 kts 177°
2026-05-07 00:12 50.37622 -1.89035 476 ft 83 kts 177°
2026-05-07 00:13 50.37043 -1.89035 476 ft 84 kts 177°
2026-05-07 00:13 50.36458 -1.89035 476 ft 84 kts 177°
2026-05-07 00:13 50.35868 -1.89035 476 ft 84 kts 177°
2026-05-07 00:13 50.35275 -1.89035 474 ft 85 kts 177°
2026-05-07 00:14 50.34680 -1.89035 474 ft 85 kts 177°
2026-05-07 00:14 50.34085 -1.89042 478 ft 85 kts 181°
2026-05-07 00:14 50.33563 -1.89443 476 ft 85 kts 230°
2026-05-07 00:14 50.33343 -1.90280 474 ft 84 kts 262°
2026-05-07 00:15 50.33453 -1.91148 474 ft 80 kts 308°
2026-05-07 00:15 50.33887 -1.91617 474 ft 77 kts 351°
2026-05-07 00:15 50.34416 -1.91610 478 ft 76 kts
2026-05-07 00:15 50.34946 -1.91606 483 ft 76 kts
2026-05-07 00:16 50.35478 -1.91623 484 ft 76 kts
2026-05-07 00:16 50.36012 -1.91631 486 ft 75 kts
2026-05-07 00:16 50.36533 -1.91634 483 ft 75 kts
2026-05-07 00:16 50.37059 -1.91634 481 ft 75 kts
2026-05-07 00:17 50.37579 -1.91635 479 ft 74 kts
2026-05-07 00:17 50.38099 -1.91635 477 ft 74 kts
2026-05-07 00:17 50.38624 -1.91635 476 ft 75 kts
2026-05-07 00:17 50.39147 -1.91636 477 ft 74 kts
2026-05-07 00:18 50.39672 -1.91636 476 ft 75 kts
2026-05-07 00:18 50.40194 -1.91636 477 ft 75 kts
2026-05-07 00:18 50.40723 -1.91636 478 ft 75 kts
2026-05-07 00:18 50.41246 -1.91637 478 ft 76 kts
2026-05-07 00:19 50.41775 -1.91637 478 ft 76 kts
2026-05-07 00:19 50.42315 -1.91637 479 ft 76 kts
2026-05-07 00:19 50.42845 -1.91637 480 ft 76 kts
2026-05-07 00:19 50.43375 -1.91637 479 ft 76 kts
2026-05-07 00:20 50.43909 -1.91637 480 ft 75 kts
2026-05-07 00:20 50.44434 -1.91637 479 ft 75 kts
2026-05-07 00:20 50.44908 -1.91637 477 ft 75 kts
2026-05-07 00:20 50.45436 -1.91637 477 ft 75 kts
2026-05-07 00:21 50.45965 -1.91637 478 ft 75 kts
2026-05-07 00:21 50.46490 -1.91637 475 ft 75 kts
2026-05-07 00:21 50.47015 -1.91637 476 ft 76 kts
2026-05-07 00:21 50.47550 -1.91637 479 ft 76 kts
2026-05-07 00:22 50.48082 -1.91637 481 ft 77 kts
2026-05-07 00:22 50.48616 -1.91637 485 ft 77 kts
2026-05-07 00:22 50.49154 -1.91637 489 ft 76 kts
2026-05-07 00:22 50.49677 -1.91787 484 ft 79 kts 333°
2026-05-07 00:23 50.50020 -1.92469 480 ft 83 kts 289°
2026-05-07 00:23 50.50079 -1.93383 477 ft 86 kts 263°
2026-05-07 00:23 50.49765 -1.94152 484 ft 85 kts 213°
2026-05-07 00:23 50.49198 -1.94399 483 ft 84 kts 183°
2026-05-07 00:24 50.48607 -1.94385 485 ft 84 kts 171°
2026-05-07 00:24 50.48021 -1.94313 487 ft 84 kts 173°
2026-05-07 00:24 50.47431 -1.94275 487 ft 84 kts 175°
2026-05-07 00:24 50.46845 -1.94263 485 ft 84 kts 176°
2026-05-07 00:25 50.46251 -1.94259 483 ft 84 kts 176°
2026-05-07 00:25 50.45662 -1.94254 480 ft 84 kts 176°
2026-05-07 00:25 50.45078 -1.94250 478 ft 84 kts 177°
2026-05-07 00:25 50.44493 -1.94247 478 ft 83 kts 177°
2026-05-07 00:26 50.43910 -1.94245 478 ft 83 kts 178°
2026-05-07 00:26 50.43324 -1.94244 474 ft 84 kts 178°
2026-05-07 00:26 50.42742 -1.94243 471 ft 84 kts 178°
2026-05-07 00:26 50.42149 -1.94242 473 ft 84 kts 177°
2026-05-07 00:27 50.41552 -1.94242 475 ft 85 kts 177°
2026-05-07 00:27 50.40956 -1.94241 479 ft 85 kts 177°
2026-05-07 00:27 50.40350 -1.94241 483 ft 85 kts 177°
2026-05-07 00:27 50.39753 -1.94240 482 ft 85 kts 177°
2026-05-07 00:28 50.39164 -1.94240 481 ft 85 kts 177°
2026-05-07 00:28 50.38567 -1.94237 477 ft 85 kts 165°
2026-05-07 00:28 50.37957 -1.94214 475 ft 87 kts 166°
2026-05-07 00:28 50.37334 -1.94203 416 ft 98 kts 166°
2026-05-07 00:29 50.36600 -1.94201 426 ft 110 kts 167°
2026-05-07 00:29 50.35789 -1.94211 463 ft 117 kts 168°
2026-05-07 00:30 50.33469 -1.93709 498 ft 110 kts 130°
2026-05-07 00:30 50.33030 -1.92732 480 ft 109 kts 117°
2026-05-07 00:30 50.32951 -1.91487 447 ft 123 kts 87°
2026-05-07 00:30 50.32761 -1.90127 465 ft 132 kts 105°
2026-05-07 00:31 50.32543 -1.88723 517 ft 130 kts 90°
2026-05-07 00:31 50.32777 -1.87469 508 ft 114 kts 71°
2026-05-07 00:31 50.33080 -1.86327 430 ft 114 kts 71°
2026-05-07 00:31 50.33345 -1.85164 431 ft 115 kts 71°
2026-05-07 00:32 50.33587 -1.83971 455 ft 115 kts 71°
2026-05-07 00:32 50.33788 -1.82741 479 ft 115 kts 75°
2026-05-07 00:32 50.33971 -1.81517 487 ft 115 kts 75°
2026-05-07 00:32 50.34166 -1.80298 489 ft 115 kts 75°
2026-05-07 00:33 50.34367 -1.79083 488 ft 115 kts 74°
2026-05-07 00:33 50.34568 -1.77874 484 ft 115 kts 74°
2026-05-07 00:33 50.34770 -1.76649 479 ft 115 kts 73°
2026-05-07 00:33 50.34967 -1.75456 480 ft 114 kts 73°
2026-05-07 00:34 50.35170 -1.74230 479 ft 114 kts 73°
2026-05-07 00:34 50.35367 -1.73035 480 ft 114 kts 73°
2026-05-07 00:34 50.35569 -1.71812 477 ft 114 kts 73°
2026-05-07 00:34 50.35767 -1.70610 474 ft 115 kts 73°
2026-05-07 00:35 50.35970 -1.69385 477 ft 115 kts 73°
2026-05-07 00:35 50.36170 -1.68172 479 ft 115 kts 73°
2026-05-07 00:35 50.36372 -1.66944 483 ft 115 kts 73°
2026-05-07 00:35 50.36572 -1.65735 482 ft 115 kts 74°
2026-05-07 00:36 50.36772 -1.64519 484 ft 114 kts 73°
2026-05-07 00:36 50.37065 -1.63349 482 ft 114 kts 55°
2026-05-07 00:36 50.37628 -1.62502 478 ft 114 kts 31°
2026-05-07 00:36 50.38385 -1.62135 481 ft 115 kts
2026-05-07 00:37 50.39172 -1.62362 479 ft 117 kts 338°
2026-05-07 00:37 50.39803 -1.63152 479 ft 120 kts 309°
2026-05-07 00:37 50.40125 -1.64366 478 ft 123 kts 279°
2026-05-07 00:37 50.40017 -1.65700 479 ft 125 kts 248°
2026-05-07 00:38 50.39487 -1.66786 478 ft 126 kts 216°
2026-05-07 00:38 50.38699 -1.67299 483 ft 124 kts 185°
2026-05-07 00:38 50.37846 -1.67132 482 ft 122 kts 155°
2026-05-07 00:38 50.37181 -1.66367 483 ft 119 kts 126°
2026-05-07 00:39 50.36834 -1.65213 484 ft 116 kts 98°
2026-05-07 00:39 50.36872 -1.63969 485 ft 115 kts 71°
2026-05-07 00:39 50.37270 -1.62904 492 ft 114 kts 45°
2026-05-07 00:39 50.37941 -1.62240 491 ft 114 kts 19°
2026-05-07 00:40 50.38723 -1.62136 494 ft 115 kts 353°
2026-05-07 00:40 50.39469 -1.62624 491 ft 118 kts 326°
2026-05-07 00:40 50.39988 -1.63628 488 ft 121 kts 297°
2026-05-07 00:40 50.40134 -1.64927 487 ft 124 kts 266°
2026-05-07 00:41 50.39844 -1.66197 486 ft 126 kts 235°
2026-05-07 00:41 50.39171 -1.67082 487 ft 125 kts 203°
2026-05-07 00:41 50.38328 -1.67312 489 ft 123 kts 172°
2026-05-07 00:41 50.37525 -1.66866 489 ft 121 kts 144°
2026-05-07 00:42 50.36979 -1.65900 486 ft 118 kts 111°
2026-05-07 00:42 50.36671 -1.64724 482 ft 117 kts 105°
2026-05-07 00:42 50.36407 -1.63508 479 ft 117 kts 106°
2026-05-07 00:42 50.36131 -1.62297 480 ft 117 kts 107°
2026-05-07 00:43 50.35843 -1.61091 478 ft 117 kts 108°
2026-05-07 00:43 50.35556 -1.59898 476 ft 117 kts 108°
2026-05-07 00:43 50.35272 -1.58707 474 ft 117 kts 108°
2026-05-07 00:43 50.34987 -1.57509 475 ft 117 kts 108°
2026-05-07 00:44 50.34701 -1.56315 474 ft 117 kts 108°
2026-05-07 00:44 50.34415 -1.55116 473 ft 117 kts 108°
2026-05-07 00:44 50.34128 -1.53921 474 ft 117 kts 107°
2026-05-07 00:44 50.33843 -1.52730 473 ft 117 kts 108°
2026-05-07 00:45 50.33556 -1.51534 472 ft 117 kts 107°
2026-05-07 00:45 50.33268 -1.50331 473 ft 117 kts 108°
2026-05-07 00:45 50.32978 -1.49124 476 ft 117 kts 107°
2026-05-07 00:45 50.32690 -1.47926 478 ft 117 kts 108°
2026-05-07 00:46 50.32405 -1.46739 478 ft 117 kts 107°
2026-05-07 00:46 50.32114 -1.45529 476 ft 117 kts 108°
2026-05-07 00:46 50.31825 -1.44328 477 ft 117 kts 107°
2026-05-07 00:46 50.31538 -1.43135 478 ft 117 kts 107°
2026-05-07 00:47 50.31250 -1.41939 479 ft 117 kts 107°
2026-05-07 00:47 50.30960 -1.40741 479 ft 118 kts 107°
2026-05-07 00:47 50.30673 -1.39547 480 ft 117 kts 107°
2026-05-07 00:47 50.30384 -1.38352 481 ft 117 kts 107°
2026-05-07 00:48 50.30095 -1.37154 479 ft 117 kts 107°
2026-05-07 00:48 50.29809 -1.35970 509 ft 114 kts 107°
2026-05-07 00:48 50.29535 -1.34831 555 ft 105 kts 108°
2026-05-07 00:48 50.29303 -1.33858 576 ft 86 kts 108°
2026-05-07 00:49 50.29104 -1.33018 473 ft 78 kts 107°
2026-05-07 00:49 50.28908 -1.32228 428 ft 78 kts 107°
2026-05-07 00:49 50.28708 -1.31434 438 ft 78 kts 107°
2026-05-07 00:49 50.28511 -1.30638 460 ft 78 kts 107°
2026-05-07 00:50 50.28393 -1.29826 474 ft 76 kts 89°
2026-05-07 00:50 50.28387 -1.29010 480 ft 76 kts 88°
2026-05-07 00:50 50.28470 -1.28209 480 ft 74 kts 60°
2026-05-07 00:50 50.28839 -1.27656 479 ft 74 kts 26°
2026-05-07 00:51 50.29337 -1.27487 475 ft 75 kts
2026-05-07 00:51 50.29822 -1.27804 476 ft 79 kts 319°
2026-05-07 00:51 50.30053 -1.28593 472 ft 83 kts 280°
2026-05-07 00:51 50.30079 -1.29502 471 ft 84 kts 273°
2026-05-07 00:52 50.30056 -1.30428 472 ft 85 kts 272°
2026-05-07 00:52 50.30043 -1.31343 474 ft 84 kts 273°
2026-05-07 00:52 50.29871 -1.32210 472 ft 86 kts 231°
2026-05-07 00:52 50.29361 -1.32672 470 ft 85 kts 189°
2026-05-07 00:53 50.28774 -1.32772 470 ft 85 kts 180°
2026-05-07 00:53 50.28189 -1.32738 474 ft 84 kts 175°
2026-05-07 00:53 50.27605 -1.32705 471 ft 84 kts 176°
2026-05-07 00:53 50.27065 -1.32440 468 ft 81 kts 138°
2026-05-07 00:54 50.26767 -1.31723 470 ft 77 kts 101°
2026-05-07 00:54 50.26698 -1.30896 473 ft 77 kts 91°
2026-05-07 00:54 50.26711 -1.30062 479 ft 76 kts 85°
2026-05-07 00:54 50.26730 -1.29245 477 ft 76 kts 85°
2026-05-07 00:55 50.26734 -1.28408 474 ft 76 kts 87°
2026-05-07 00:55 50.26730 -1.27583 474 ft 76 kts 87°
2026-05-07 00:55 50.26725 -1.26754 474 ft 76 kts 87°
2026-05-07 00:55 50.26735 -1.25934 470 ft 75 kts 79°
2026-05-07 00:56 50.26981 -1.25233 469 ft 74 kts 41°
2026-05-07 00:56 50.27446 -1.24913 469 ft 75 kts
2026-05-07 00:56 50.27966 -1.24854 471 ft 75 kts
2026-05-07 00:56 50.28491 -1.24878 473 ft 75 kts
2026-05-07 00:57 50.29018 -1.24904 473 ft 75 kts
2026-05-07 00:57 50.29539 -1.24913 473 ft 75 kts
2026-05-07 00:57 50.30062 -1.24913 474 ft 75 kts
2026-05-07 00:57 50.30588 -1.24913 471 ft 75 kts
2026-05-07 00:58 50.31113 -1.24945 468 ft 76 kts 351°
2026-05-07 00:58 50.31558 -1.25399 469 ft 80 kts 310°
2026-05-07 00:58 50.31736 -1.26236 469 ft 83 kts 281°
2026-05-07 00:58 50.31765 -1.27134 471 ft 84 kts 274°
2026-05-07 00:59 50.31721 -1.28968 474 ft 84 kts 272°
2026-05-07 00:59 50.31715 -1.29884 474 ft 84 kts 273°
2026-05-07 00:59 50.31716 -1.30796 470 ft 84 kts 274°
2026-05-07 01:00 50.31716 -1.31716 472 ft 84 kts 273°
2026-05-07 01:00 50.31715 -1.32630 471 ft 84 kts 273°
2026-05-07 01:00 50.31714 -1.33545 471 ft 84 kts 273°
2026-05-07 01:00 50.31672 -1.34457 465 ft 85 kts 252°
2026-05-07 01:01 50.31291 -1.35147 470 ft 85 kts 206°
2026-05-07 01:01 50.30719 -1.35352 470 ft 85 kts 184°
2026-05-07 01:01 50.30131 -1.35369 474 ft 84 kts 175°
2026-05-07 01:01 50.29548 -1.35326 476 ft 84 kts 175°
2026-05-07 01:02 50.28954 -1.35304 476 ft 84 kts 176°
2026-05-07 01:02 50.28365 -1.35305 477 ft 84 kts 178°
2026-05-07 01:02 50.27779 -1.35310 473 ft 84 kts 178°
2026-05-07 01:02 50.27187 -1.35312 472 ft 84 kts 177°
2026-05-07 01:03 50.26597 -1.35313 475 ft 84 kts 178°
2026-05-07 01:03 50.26016 -1.35314 473 ft 84 kts 178°
2026-05-07 01:03 50.25454 -1.35133 469 ft 81 kts 144°
2026-05-07 01:03 50.25111 -1.34475 468 ft 78 kts 105°
2026-05-07 01:04 50.25033 -1.33650 470 ft 77 kts 92°
2026-05-07 01:04 50.25029 -1.32812 476 ft 76 kts 86°
2026-05-07 01:04 50.25048 -1.31986 478 ft 76 kts 85°
2026-05-07 01:04 50.25057 -1.31154 478 ft 76 kts 86°
2026-05-07 01:05 50.25057 -1.30319 477 ft 76 kts 87°
2026-05-07 01:05 50.25054 -1.29490 477 ft 76 kts 87°
2026-05-07 01:05 50.25053 -1.28659 478 ft 76 kts 86°
2026-05-07 01:05 50.25053 -1.27828 478 ft 76 kts 87°
2026-05-07 01:06 50.25053 -1.27007 477 ft 76 kts 87°
2026-05-07 01:06 50.25052 -1.26175 475 ft 76 kts 87°
2026-05-07 01:06 50.25052 -1.25350 477 ft 76 kts 87°
2026-05-07 01:06 50.25052 -1.24515 477 ft 76 kts 87°
2026-05-07 01:07 50.25051 -1.23684 478 ft 76 kts 87°
2026-05-07 01:07 50.25172 -1.22894 478 ft 74 kts 56°
2026-05-07 01:07 50.25565 -1.22394 478 ft 74 kts 21°
2026-05-07 01:07 50.26080 -1.22275 477 ft 75 kts
2026-05-07 01:08 50.26614 -1.22271 479 ft 75 kts
2026-05-07 01:08 50.27139 -1.22300 481 ft 75 kts
2026-05-07 01:08 50.27663 -1.22314 481 ft 75 kts
2026-05-07 01:08 50.28192 -1.22315 479 ft 75 kts
2026-05-07 01:09 50.28715 -1.22314 478 ft 75 kts
2026-05-07 01:09 50.29240 -1.22314 477 ft 75 kts
2026-05-07 01:09 50.29765 -1.22314 476 ft 75 kts
2026-05-07 01:09 50.30296 -1.22314 477 ft 75 kts
2026-05-07 01:10 50.30827 -1.22314 477 ft 76 kts
2026-05-07 01:10 50.31354 -1.22314 477 ft 76 kts
2026-05-07 01:10 50.31889 -1.22313 479 ft 75 kts
2026-05-07 01:10 50.32418 -1.22312 478 ft 76 kts
2026-05-07 01:11 50.32941 -1.22311 493 ft 76 kts
2026-05-07 01:11 50.33467 -1.22236 664 ft 76 kts 16°
2026-05-07 01:11 50.34018 -1.22126 830 ft 88 kts 16°
2026-05-07 01:11 50.34664 -1.21993 1078 ft 96 kts 16°
2026-05-07 01:12 50.35337 -1.21848 1362 ft 96 kts 15°
2026-05-07 01:12 50.35999 -1.21647 1479 ft 101 kts 15°
2026-05-07 01:12 50.36769 -1.21327 1424 ft 123 kts 15°
2026-05-07 01:12 50.37627 -1.20975 1508 ft 126 kts 15°
2026-05-07 01:13 50.38479 -1.20666 1535 ft 126 kts 14°
2026-05-07 01:13 50.39335 -1.20370 1514 ft 125 kts 14°
2026-05-07 01:13 50.40194 -1.20067 1491 ft 126 kts 14°
2026-05-07 01:13 50.41052 -1.19761 1477 ft 126 kts 15°
2026-05-07 01:14 50.41907 -1.19455 1470 ft 126 kts 15°
2026-05-07 01:14 50.42767 -1.19149 1473 ft 126 kts 14°
2026-05-07 01:14 50.43629 -1.18841 1476 ft 126 kts 15°
2026-05-07 01:14 50.44488 -1.18534 1478 ft 126 kts 15°
2026-05-07 01:15 50.45329 -1.18161 1478 ft 125 kts 22°
2026-05-07 01:15 50.46147 -1.17679 1482 ft 125 kts 22°
2026-05-07 01:15 50.46968 -1.17200 1484 ft 125 kts 22°
2026-05-07 01:15 50.47778 -1.16729 1481 ft 125 kts 22°
2026-05-07 01:16 50.48602 -1.16250 1479 ft 125 kts 22°
2026-05-07 01:16 50.49421 -1.15773 1476 ft 125 kts 22°
2026-05-07 01:16 50.50246 -1.15290 1476 ft 126 kts 22°
2026-05-07 01:16 50.51076 -1.14801 1478 ft 126 kts 22°
2026-05-07 01:17 50.51900 -1.14313 1482 ft 126 kts 22°
2026-05-07 01:17 50.52716 -1.13830 1491 ft 126 kts 22°
2026-05-07 01:17 50.53539 -1.13342 1493 ft 125 kts 22°
2026-05-07 01:17 50.54347 -1.12864 1490 ft 125 kts 22°
2026-05-07 01:18 50.55159 -1.12383 1482 ft 125 kts 22°
2026-05-07 01:18 50.55979 -1.11895 1478 ft 125 kts 22°
2026-05-07 01:18 50.56789 -1.11414 1482 ft 124 kts 22°
2026-05-07 01:18 50.57605 -1.10929 1480 ft 125 kts 22°
2026-05-07 01:19 50.58414 -1.10446 1481 ft 125 kts 22°
2026-05-07 01:19 50.59232 -1.09959 1478 ft 125 kts 22°
2026-05-07 01:19 50.60052 -1.09471 1478 ft 126 kts 22°
2026-05-07 01:19 50.60870 -1.08986 1479 ft 126 kts 22°
2026-05-07 01:20 50.61690 -1.08499 1483 ft 126 kts 22°
2026-05-07 01:20 50.62515 -1.08010 1492 ft 126 kts 22°
2026-05-07 01:20 50.63325 -1.07529 1490 ft 125 kts 22°
2026-05-07 01:20 50.64143 -1.07041 1490 ft 125 kts 22°
2026-05-07 01:21 50.64956 -1.06554 1485 ft 125 kts 22°
2026-05-07 01:21 50.65768 -1.06069 1483 ft 125 kts 22°
2026-05-07 01:21 50.66589 -1.05576 1478 ft 125 kts 22°
2026-05-07 01:21 50.67435 -1.05201 1453 ft 128 kts
2026-05-07 01:22 50.68260 -1.05739 1495 ft 129 kts 330°
2026-05-07 01:22 50.69009 -1.06522 1485 ft 129 kts 330°
2026-05-07 01:22 50.69776 -1.07313 1468 ft 130 kts 330°
2026-05-07 01:22 50.70535 -1.08087 1468 ft 131 kts 330°
2026-05-07 01:23 50.71301 -1.08872 1477 ft 131 kts 330°
2026-05-07 01:23 50.72069 -1.09656 1485 ft 130 kts 330°
2026-05-07 01:23 50.72845 -1.10445 1487 ft 130 kts 330°
2026-05-07 01:23 50.73608 -1.11220 1487 ft 130 kts 330°
2026-05-07 01:24 50.74247 -1.12269 1494 ft 132 kts 313°
2026-05-07 01:24 50.74838 -1.13371 1489 ft 132 kts 313°
2026-05-07 01:24 50.75437 -1.14485 1480 ft 132 kts 313°
2026-05-07 01:24 50.76040 -1.15602 1476 ft 132 kts 314°
2026-05-07 01:25 50.76632 -1.16702 1479 ft 132 kts 313°
2026-05-07 01:25 50.77288 -1.17749 1420 ft 137 kts 316°
2026-05-07 01:25 50.77961 -1.18905 1350 ft 142 kts 313°
2026-05-07 01:25 50.78558 -1.20111 1231 ft 136 kts 319°
2026-05-07 01:26 50.79241 -1.21082 1137 ft 131 kts 326°
2026-05-07 01:26 50.79937 -1.21904 862 ft 118 kts 336°
2026-05-07 01:26 50.80689 -1.21966 453 ft 107 kts 32°
2026-05-07 01:26 50.81216 -1.21246 142 ft 94 kts 49°
2026-05-07 01:27 50.81592 -1.20653 70 ft 53 kts 49°
2026-05-07 01:27 50.81743 -1.20398 72 ft 14 kts 57°
2026-05-07 01:27 50.81733 -1.20415 60 ft 10 kts 226°
2026-05-07 01:27 50.81657 -1.20528 75 ft 20 kts 231°
2026-05-07 01:28 50.81520 -1.20743 91 ft 37 kts 225°
2026-05-07 01:28 50.81327 -1.21055 70 ft 31 kts 223°
2026-05-07 01:28 50.81235 -1.21070 53 ft 14 kts 122°
2026-05-07 01:28 50.81211 -1.20903 52 ft 14 kts 95°
2026-05-07 01:29 50.81199 -1.20765 49 ft 11 kts 96°
2026-05-07 01:29 50.81196 -1.20706 39 ft 0 kts 99°
2026-05-07 01:29 50.81195 -1.20704 33 ft 0 kts 97°